McGee, Missouri
Current Conditions -  °F | °C
As of 10:53 PM on Saturday 22 Nov 2014 (Local Time) from KPOF Reporting Station
Clear Clear  
Wind Chill: 45°   Ceiling: Unl
Heat Index: 49°   Visibility: 10mi
Dew Point: 40°   Wind: 8mph
Humidity: 71%   Direction: 150°SSE
Pressure: 29.92"   Gusts: NA
Location:  37.07°N, 90.2°W
Report Text: KPOF 230453Z AUTO 15007KT 10SM CLR 09/04 A2992 RMK AO2 SLP133 T00940044
Loading
Personal Weather Stations






























Interactive Weather Map New forecast layout! Learn more

10-Day Weather Forecast

Advertisements
Track Severe Weather on mobile